Time;durP1;ratioP1;P1;durP2;ratioP2;P2;SDS_P1;SDS_P2;PMS_P1;PMS_P2;Temp;Humidity;BMP_temperature;BMP_pressure;BME280_temperature;BME280_humidity;BME280_pressure;Samples;Min_cycle;Max_cycle;Signal;HPM_P1;HPM_P2
2022/06/25 00:00:55;;;;;;;;;;;;;;;14.93;98.60;98907.19;7796592;30;20273;-73
2022/06/25 00:09:16;;;;;;;;;;;;;;;14.98;98.16;98913.16;7798571;30;20222;-73
2022/06/25 00:13:17;;;;;;;;;;;;;;;14.94;98.29;98907.16;7796092;30;20046;-73
2022/06/25 00:17:20;;;;;;;;;;;;;;;14.96;98.99;98914.94;7793073;30;20030;-73
2022/06/25 00:21:22;;;;;;;;;;;;;;;15.06;99.36;98921.59;7801036;30;20369;-73
2022/06/25 00:25:23;;;;;;;;;;;;;;;15.17;99.95;98923.91;7800686;30;20226;-73
2022/06/25 00:29:24;;;;;;;;;;;;;;;15.21;100.00;98922.91;7798306;30;19965;-73
2022/06/25 00:33:26;;;;;;;;;;;;;;;15.25;100.00;98921.91;7797294;30;20014;-73
2022/06/25 00:37:27;;;;;;;;;;;;;;;15.28;99.80;98919.22;7795855;30;19957;-74
2022/06/25 00:41:29;;;;;;;;;;;;;;;15.30;99.49;98927.88;7800673;30;19940;-73
2022/06/25 00:45:30;;;;;;;;;;;;;;;15.24;98.31;98930.66;7790545;30;20009;-73
2022/06/25 00:49:32;;;;;;;;;;;;;;;15.19;97.76;98937.78;7795319;30;19970;-73
2022/06/25 00:53:34;;;;;;;;;;;;;;;15.14;97.68;98937.06;7781617;30;19984;-73
2022/06/25 00:57:37;;;;;;;;;;;;;;;15.10;97.55;98937.19;7804094;30;20060;-73
2022/06/25 01:01:39;;;;;;;;;;;;;;;15.11;97.35;98951.09;7797036;30;20367;-73
2022/06/25 01:05:40;;;;;;;;;;;;;;;15.11;97.50;98944.13;7799703;30;19974;-73
2022/06/25 01:09:42;;;;;;;;;;;;;;;15.10;97.41;98958.09;7799833;30;19939;-73
2022/06/25 01:13:43;;;;;;;;;;;;;;;15.07;97.43;98962.53;7778925;30;20305;-73
2022/06/25 01:17:45;;;;;;;;;;;;;;;15.07;97.56;98965.16;7796345;30;20337;-73
2022/06/25 01:21:47;;;;;;;;;;;;;;;15.06;97.61;98966.06;7782420;30;19970;-73
2022/06/25 01:25:48;;;;;;;;;;;;;;;15.07;97.89;98966.00;7799047;30;20442;-73
2022/06/25 01:29:50;;;;;;;;;;;;;;;15.07;97.62;98963.38;7798706;30;20287;-73
2022/06/25 01:33:51;;;;;;;;;;;;;;;15.04;97.57;98970.47;7791981;30;19935;-73
2022/06/25 01:37:52;;;;;;;;;;;;;;;14.98;97.64;98976.75;7799760;30;19939;-73
2022/06/25 01:41:54;;;;;;;;;;;;;;;14.97;97.82;98977.66;7796072;30;19970;-73
2022/06/25 01:45:55;;;;;;;;;;;;;;;14.95;97.21;98978.59;7795397;30;19945;-73
2022/06/25 01:49:57;;;;;;;;;;;;;;;14.94;97.83;98982.97;7798260;30;19978;-73
2022/06/25 01:53:58;;;;;;;;;;;;;;;14.94;97.42;98974.28;7798081;30;19992;-73
2022/06/25 01:58:00;;;;;;;;;;;;;;;14.91;97.36;98977.84;7797815;30;20244;-73
2022/06/25 02:02:01;;;;;;;;;;;;;;;14.89;97.17;98981.38;7795485;30;19934;-73
2022/06/25 02:06:03;;;;;;;;;;;;;;;14.85;96.87;98977.13;7800673;30;19949;-73
2022/06/25 02:10:05;;;;;;;;;;;;;;;14.77;96.74;98980.84;7802770;30;20421;-73
2022/06/25 02:14:06;;;;;;;;;;;;;;;14.73;97.67;98983.59;7789011;30;19935;-73
2022/06/25 02:18:08;;;;;;;;;;;;;;;14.75;98.06;98993.09;7795646;30;19945;-73
2022/06/25 02:22:14;;;;;;;;;;;;;;;14.73;97.99;98983.59;7801609;30;19935;-73
2022/06/25 02:26:15;;;;;;;;;;;;;;;14.73;97.88;98973.13;7787041;30;19935;-73
2022/06/25 02:30:17;;;;;;;;;;;;;;;14.74;97.85;98974.84;7798655;30;19949;-73
2022/06/25 02:34:18;;;;;;;;;;;;;;;14.76;97.78;98978.25;7802567;30;19941;-73
2022/06/25 02:38:20;;;;;;;;;;;;;;;14.80;98.10;98969.44;7786998;30;20352;-73
2022/06/25 02:42:21;;;;;;;;;;;;;;;14.79;97.39;98965.97;7803752;30;19935;-72
2022/06/25 02:46:22;;;;;;;;;;;;;;;14.79;97.39;98965.09;7798559;30;20009;-73
2022/06/25 02:50:24;;;;;;;;;;;;;;;14.75;97.27;98969.56;7800691;30;19935;-73
2022/06/25 02:54:25;;;;;;;;;;;;;;;14.74;97.21;98962.63;7802567;30;19939;-73
2022/06/25 03:02:47;;;;;;;;;;;;;;;14.62;96.71;98970.78;7793610;30;19939;-73
2022/06/25 03:06:48;;;;;;;;;;;;;;;14.57;96.60;98977.91;7782258;30;20041;-73
2022/06/25 03:10:50;;;;;;;;;;;;;;;14.50;96.61;98986.78;7781499;30;20578;-73
2022/06/25 03:14:51;;;;;;;;;;;;;;;14.50;96.69;98981.56;7796729;30;20391;-72
2022/06/25 03:18:53;;;;;;;;;;;;;;;14.48;96.69;98984.22;7780016;30;19950;-72
2022/06/25 03:22:54;;;;;;;;;;;;;;;14.44;96.77;98982.59;7802690;30;19970;-73
2022/06/25 03:26:56;;;;;;;;;;;;;;;14.45;97.34;98976.47;7787580;30;19973;-72
2022/06/25 03:30:57;;;;;;;;;;;;;;;14.42;97.00;98986.97;7795517;30;19934;-74
2022/06/25 03:34:59;;;;;;;;;;;;;;;14.34;97.13;98990.69;7787898;30;19973;-74
2022/06/25 03:39:01;;;;;;;;;;;;;;;14.33;97.45;99005.50;7802775;30;19935;-73
2022/06/25 03:43:02;;;;;;;;;;;;;;;14.31;97.40;99006.44;7801493;30;19945;-73
2022/06/25 03:47:04;;;;;;;;;;;;;;;14.31;97.89;99007.28;7798570;30;19941;-73
2022/06/25 03:51:05;;;;;;;;;;;;;;;14.33;97.97;99004.63;7801854;30;20001;-73
2022/06/25 03:55:07;;;;;;;;;;;;;;;14.37;98.04;99007.16;7799001;30;19941;-73
2022/06/25 03:59:08;;;;;;;;;;;;;;;14.39;97.83;99007.97;7773039;30;19941;-74
2022/06/25 04:03:10;;;;;;;;;;;;;;;14.41;97.55;99008.78;7798678;30;19989;-74
2022/06/25 04:07:11;;;;;;;;;;;;;;;14.46;97.49;99011.28;7801818;30;19970;-74
2022/06/25 04:11:13;;;;;;;;;;;;;;;14.47;97.23;99008.63;7784892;30;20565;-73
2022/06/25 04:15:15;;;;;;;;;;;;;;;14.49;96.86;99009.44;7794417;30;19942;-73
2022/06/25 04:19:16;;;;;;;;;;;;;;;14.52;96.95;99011.13;7786019;30;19950;-74
2022/06/25 04:23:17;;;;;;;;;;;;;;;14.55;97.23;99018.06;7785821;30;19935;-73
2022/06/25 04:31:39;;;;;;;;;;;;;;;14.74;98.13;99034.94;7796103;30;19935;-74
2022/06/25 04:35:41;;;;;;;;;;;;;;;14.86;98.67;99042.44;7798963;30;19949;-73
2022/06/25 04:39:42;;;;;;;;;;;;;;;14.96;98.75;99035.22;7797695;30;20076;-74
2022/06/25 04:43:43;;;;;;;;;;;;;;;15.04;99.19;99034.09;7789203;30;19981;-74
2022/06/25 04:47:45;;;;;;;;;;;;;;;15.11;99.28;99038.25;7773689;30;19942;-74
2022/06/25 04:51:46;;;;;;;;;;;;;;;15.30;99.43;99049.06;7792484;30;20620;-74
2022/06/25 04:55:47;;;;;;;;;;;;;;;15.52;99.16;99051.88;7796690;30;19942;-74
2022/06/25 04:59:49;;;;;;;;;;;;;;;15.68;98.72;99055.78;7799251;30;19978;-74
2022/06/25 05:03:50;;;;;;;;;;;;;;;15.75;98.13;99056.44;7785881;30;19939;-74
2022/06/25 05:07:52;;;;;;;;;;;;;;;15.81;98.00;99051.03;7800360;30;19941;-74
2022/06/25 05:11:53;;;;;;;;;;;;;;;15.82;97.54;99057.13;7795655;30;19934;-73
2022/06/25 05:15:55;;;;;;;;;;;;;;;15.87;97.57;99058.69;7795779;30;19966;-74
2022/06/25 05:19:56;;;;;;;;;;;;;;;15.91;96.81;99051.59;7781174;30;19934;-74
2022/06/25 05:23:59;;;;;;;;;;;;;;;15.97;96.79;99056.63;7797339;30;20252;-74
2022/06/25 05:28:01;;;;;;;;;;;;;;;16.05;96.44;99053.78;7797126;30;19935;-75
2022/06/25 05:32:02;;;;;;;;;;;;;;;16.11;96.47;99053.56;7796096;30;20266;-75
2022/06/25 05:36:04;;;;;;;;;;;;;;;16.24;96.14;99053.13;7796547;30;19939;-74
2022/06/25 05:40:05;;;;;;;;;;;;;;;16.52;95.41;99060.09;7799697;30;19935;-75
2022/06/25 05:44:07;;;;;;;;;;;;;;;16.63;94.91;99061.41;7798531;30;19945;-75
2022/06/25 05:48:08;;;;;;;;;;;;;;;17.24;93.54;99060.22;7793848;30;19981;-76
2022/06/25 05:52:10;;;;;;;;;;;;;;;17.90;90.71;99061.19;7795298;30;19967;-76
2022/06/25 05:56:11;;;;;;;;;;;;;;;18.42;87.46;99076.56;7793736;30;19934;-76
2022/06/25 06:00:13;;;;;;;;;;;;;;;18.32;86.38;99077.88;7792013;30;19981;-76
2022/06/25 06:04:14;;;;;;;;;;;;;;;18.32;85.64;99062.13;7798208;30;19974;-75
2022/06/25 06:08:16;;;;;;;;;;;;;;;18.96;84.02;99066.44;7781021;30;19934;-76
2022/06/25 06:12:17;;;;;;;;;;;;;;;19.68;81.45;99064.06;7795625;30;20056;-76
2022/06/25 06:16:19;;;;;;;;;;;;;;;20.41;78.45;99062.34;7789303;30;19934;-76
2022/06/25 06:20:20;;;;;;;;;;;;;;;20.96;75.24;99057.75;7793681;30;20324;-76
2022/06/25 06:24:22;;;;;;;;;;;;;;;21.21;74.35;99061.75;7794722;30;20322;-76
2022/06/25 06:28:23;;;;;;;;;;;;;;;21.78;71.53;99060.41;7796267;30;20605;-76
2022/06/25 06:32:24;;;;;;;;;;;;;;;22.20;69.26;99054.50;7777914;30;19939;-76
2022/06/25 06:36:26;;;;;;;;;;;;;;;22.03;67.02;99055.44;7798358;30;19935;-76
2022/06/25 06:40:27;;;;;;;;;;;;;;;21.92;67.57;99055.22;7795980;30;19935;-76
2022/06/25 06:44:28;;;;;;;;;;;;;;;22.16;67.65;99055.63;7803581;30;19993;-75
2022/06/25 06:48:30;;;;;;;;;;;;;;;22.44;67.96;99049.63;7795471;30;20010;-76
2022/06/25 06:52:31;;;;;;;;;;;;;;;22.48;67.04;99050.28;7779225;30;20025;-77
2022/06/25 06:56:32;;;;;;;;;;;;;;;22.61;66.09;99052.09;7794763;30;19945;-76
2022/06/25 07:00:34;;;;;;;;;;;;;;;22.76;64.22;99049.50;7776632;30;19962;-77
2022/06/25 07:04:35;;;;;;;;;;;;;;;22.95;64.21;99051.91;7790352;30;19945;-76
2022/06/25 07:08:37;;;;;;;;;;;;;;;23.06;62.97;99041.53;7763094;30;20057;-76
2022/06/25 07:12:38;;;;;;;;;;;;;;;23.09;63.62;99042.19;7793931;30;20482;-77
2022/06/25 07:16:40;;;;;;;;;;;;;;;23.34;62.25;99049.50;7791317;30;19975;-76
2022/06/25 07:20:42;;;;;;;;;;;;;;;23.55;62.46;99042.00;7795281;30;20389;-76
2022/06/25 07:24:51;;;;;;;;;;;;;;;23.58;60.40;99039.19;7787802;30;19939;-76
2022/06/25 07:28:53;;;;;;;;;;;;;;;23.66;60.97;99039.53;7798020;30;20038;-75
2022/06/25 07:32:55;;;;;;;;;;;;;;;23.86;60.73;99038.25;7773680;30;20033;-77
2022/06/25 07:36:56;;;;;;;;;;;;;;;23.94;58.56;99028.03;7790184;30;20042;-75
2022/06/25 07:40:58;;;;;;;;;;;;;;;24.16;57.82;99027.47;7797725;30;19935;-75
2022/06/25 07:44:59;;;;;;;;;;;;;;;24.21;57.89;99033.31;7797521;30;20409;-75
2022/06/25 07:49:00;;;;;;;;;;;;;;;24.32;57.89;99025.53;7793706;30;19935;-77
2022/06/25 07:53:02;;;;;;;;;;;;;;;24.35;58.15;99027.13;7779847;30;20038;-77
2022/06/25 07:57:03;;;;;;;;;;;;;;;24.59;58.27;99021.97;7799927;30;19945;-76
2022/06/25 08:01:05;;;;;;;;;;;;;;;24.91;58.25;99015.31;7777457;30;20033;-76
2022/06/25 08:05:07;;;;;;;;;;;;;;;25.12;56.17;99006.81;7797500;30;20297;-76
2022/06/25 08:09:08;;;;;;;;;;;;;;;25.36;54.96;99001.59;7803294;30;19946;-76
2022/06/25 08:13:10;;;;;;;;;;;;;;;25.50;53.96;99004.13;7788200;30;20239;-76
2022/06/25 08:17:11;;;;;;;;;;;;;;;25.45;50.75;98998.28;7795163;30;19941;-76
2022/06/25 08:21:13;;;;;;;;;;;;;;;25.58;52.70;99001.75;7792644;30;19945;-76
2022/06/25 08:25:14;;;;;;;;;;;;;;;25.63;51.79;99004.94;7801190;30;19939;-76
2022/06/25 08:29:16;;;;;;;;;;;;;;;25.71;52.60;98988.47;7791216;30;19994;-77
2022/06/25 08:33:17;;;;;;;;;;;;;;;25.84;52.16;98998.06;7796991;30;20030;-76
2022/06/25 08:37:18;;;;;;;;;;;;;;;25.98;50.49;99001.53;7791664;30;19934;-76
2022/06/25 08:41:20;;;;;;;;;;;;;;;26.09;50.67;98997.13;7794346;30;19930;-76
2022/06/25 08:45:21;;;;;;;;;;;;;;;25.82;49.46;98996.50;7790846;30;19935;-77
2022/06/25 08:49:23;;;;;;;;;;;;;;;25.79;49.75;98997.56;7781760;30;19939;-76
2022/06/25 08:53:29;;;;;;;;;;;;;;;26.18;51.58;99003.56;7779655;30;19949;-76
2022/06/25 08:57:30;;;;;;;;;;;;;;;26.19;49.83;99002.59;7794650;30;19977;-76
2022/06/25 09:01:32;;;;;;;;;;;;;;;25.34;50.21;98996.41;7790025;30;20230;-75
2022/06/25 09:05:34;;;;;;;;;;;;;;;25.54;52.70;98997.63;7791369;30;19935;-76
2022/06/25 09:09:35;;;;;;;;;;;;;;;25.86;51.95;98992.66;7793533;30;20025;-76
2022/06/25 09:13:37;;;;;;;;;;;;;;;25.90;51.73;98996.78;7787509;30;20575;-76
2022/06/25 09:17:45;;;;;;;;;;;;;;;26.22;50.78;98996.22;7783649;30;19941;-76
2022/06/25 09:21:47;;;;;;;;;;;;;;;26.01;49.19;98991.50;7791190;30;20643;-76
2022/06/25 09:26:08;;;;;;;;;;;;;;;26.16;48.72;98990.38;7784071;30;20016;-75
2022/06/25 09:30:10;;;;;;;;;;;;;;;26.67;47.75;98994.56;7781770;30;20336;-76
2022/06/25 09:34:12;;;;;;;;;;;;;;;26.90;47.11;98985.63;7792463;30;20630;-77
2022/06/25 09:38:16;;;;;;;;;;;;;;;26.99;46.11;98989.41;7778764;30;19935;-77
2022/06/25 09:42:26;;;;;;;;;;;;;;;26.66;46.50;98990.19;7792174;30;20060;-77
2022/06/25 09:46:27;;;;;;;;;;;;;;;26.08;46.37;98979.47;7793589;30;19963;-77
2022/06/25 09:50:29;;;;;;;;;;;;;;;26.12;49.25;98980.06;7793576;30;19939;-77
2022/06/25 09:54:31;;;;;;;;;;;;;;;26.19;47.36;98979.50;7792531;30;19934;-77
2022/06/25 09:58:34;;;;;;;;;;;;;;;26.20;46.91;98980.34;7801369;30;19956;-77
2022/06/25 10:02:36;;;;;;;;;;;;;;;26.30;46.45;98983.16;7784335;30;19993;-77
2022/06/25 10:06:39;;;;;;;;;;;;;;;26.55;47.83;98977.69;7794632;30;19963;-78
2022/06/25 10:10:42;;;;;;;;;;;;;;;26.86;47.71;98968.19;7789700;30;20042;-77
2022/06/25 10:14:44;;;;;;;;;;;;;;;27.21;45.79;98964.59;7785445;30;20034;-77
2022/06/25 10:18:47;;;;;;;;;;;;;;;26.97;44.75;98962.03;7783095;30;19985;-78
2022/06/25 10:22:50;;;;;;;;;;;;;;;26.53;45.42;98961.00;7788213;30;19935;-78
2022/06/25 10:26:52;;;;;;;;;;;;;;;26.47;45.14;98953.47;7800413;30;20403;-77
2022/06/25 10:30:56;;;;;;;;;;;;;;;26.61;43.47;98961.25;7781274;30;20353;-78
2022/06/25 10:34:58;;;;;;;;;;;;;;;26.96;44.29;98955.00;7779263;30;19934;-77
2022/06/25 10:39:20;;;;;;;;;;;;;;;26.85;45.56;98953.16;7801057;30;19934;-77
2022/06/25 10:43:33;;;;;;;;;;;;;;;26.54;45.63;98946.72;7794487;30;20027;-76
2022/06/25 10:47:43;;;;;;;;;;;;;;;26.49;47.01;98946.22;7791143;30;20491;-76
2022/06/25 10:51:49;;;;;;;;;;;;;;;26.94;46.78;98938.28;7805855;30;19997;-76
2022/06/25 10:55:50;;;;;;;;;;;;;;;27.30;45.75;98939.88;7779949;30;19939;-76
2022/06/25 11:00:00;;;;;;;;;;;;;;;27.60;43.95;98932.03;7790837;30;20289;-76
2022/06/25 11:04:03;;;;;;;;;;;;;;;27.32;42.16;98929.94;7797403;30;19935;-77
2022/06/25 11:08:05;;;;;;;;;;;;;;;27.36;43.02;98926.88;7792793;30;19934;-77
2022/06/25 11:12:07;;;;;;;;;;;;;;;27.56;43.78;98922.59;7775480;30;20352;-77
2022/06/25 11:16:11;;;;;;;;;;;;;;;27.39;41.79;98920.44;7786002;30;19931;-76
2022/06/25 11:20:13;;;;;;;;;;;;;;;27.21;42.16;98917.44;7798091;30;19947;-77
2022/06/25 11:24:19;;;;;;;;;;;;;;;27.56;43.90;98917.25;7779690;30;19934;-77
2022/06/25 11:32:43;;;;;;;;;;;;;;;27.67;41.81;98916.44;7787216;30;19962;-76
2022/06/25 11:36:45;;;;;;;;;;;;;;;27.72;42.62;98921.38;7793060;30;19988;-76
2022/06/25 11:40:47;;;;;;;;;;;;;;;27.42;41.54;98922.03;7778654;30;19939;-77
2022/06/25 11:44:50;;;;;;;;;;;;;;;27.68;42.87;98923.47;7787233;30;19995;-77
2022/06/25 11:48:51;;;;;;;;;;;;;;;27.56;42.30;98919.94;7772806;30;20030;-77
2022/06/25 11:52:53;;;;;;;;;;;;;;;27.67;43.04;98921.75;7788906;30;21239;-77
2022/06/25 11:56:55;;;;;;;;;;;;;;;27.59;41.72;98921.50;7791354;30;20033;-77
2022/06/25 12:00:57;;;;;;;;;;;;;;;27.61;41.52;98916.88;7787342;30;19997;-77
2022/06/25 12:05:00;;;;;;;;;;;;;;;27.12;42.66;98909.38;7791881;30;19935;-76
2022/06/25 12:09:01;;;;;;;;;;;;;;;26.79;43.37;98917.22;7791073;30;19939;-77
2022/06/25 12:13:03;;;;;;;;;;;;;;;26.76;43.89;98908.63;7791441;30;19935;-76
2022/06/25 12:17:04;;;;;;;;;;;;;;;26.67;43.24;98904.00;7787421;30;20300;-77
2022/06/25 12:21:06;;;;;;;;;;;;;;;27.20;43.29;98893.59;7788702;30;20593;-76
2022/06/25 12:25:09;;;;;;;;;;;;;;;27.68;44.03;98889.63;7783142;30;20488;-76
2022/06/25 12:29:15;;;;;;;;;;;;;;;27.95;42.24;98872.25;7790839;30;20022;-76
2022/06/25 12:33:16;;;;;;;;;;;;;;;28.12;41.02;98879.69;7790500;30;20053;-76
2022/06/25 12:37:31;;;;;;;;;;;;;;;28.08;41.19;98867.59;7793432;30;19967;-76
2022/06/25 12:41:54;;;;;;;;;;;;;;;28.02;39.70;98867.28;7776138;30;20317;-76
2022/06/25 12:45:55;;;;;;;;;;;;;;;27.70;42.79;98865.47;7770984;30;19935;-76
2022/06/25 12:49:57;;;;;;;;;;;;;;;28.02;41.96;98852.09;7785895;30;19939;-76
2022/06/25 12:53:58;;;;;;;;;;;;;;;28.02;41.23;98856.59;7771186;30;19946;-76
2022/06/25 12:58:04;;;;;;;;;;;;;;;28.05;41.28;98856.34;7788923;30;20000;-76
2022/06/25 13:02:05;;;;;;;;;;;;;;;28.05;38.47;98848.31;7782834;30;19939;-76
2022/06/25 13:06:07;;;;;;;;;;;;;;;27.77;39.01;98857.78;7784953;30;19950;-77
2022/06/25 13:10:08;;;;;;;;;;;;;;;27.84;40.34;98841.16;7787955;30;19935;-76
2022/06/25 13:14:10;;;;;;;;;;;;;;;28.11;40.28;98835.28;7791153;30;19946;-76
2022/06/25 13:18:11;;;;;;;;;;;;;;;28.36;39.91;98839.38;7769689;30;19942;-76
2022/06/25 13:22:13;;;;;;;;;;;;;;;28.49;40.52;98832.00;7776542;30;19974;-76
2022/06/25 13:26:14;;;;;;;;;;;;;;;28.82;40.92;98833.56;7799176;30;19970;-76
2022/06/25 13:30:15;;;;;;;;;;;;;;;28.95;40.12;98840.53;7780182;30;19938;-76
2022/06/25 13:34:37;;;;;;;;;;;;;;;28.78;38.29;98836.63;7791092;30;19987;-76
2022/06/25 13:38:38;;;;;;;;;;;;;;;28.92;38.67;98824.75;7795117;30;19973;-76
2022/06/25 13:42:39;;;;;;;;;;;;;;;29.06;38.06;98816.31;7773532;30;19974;-76
2022/06/25 13:46:41;;;;;;;;;;;;;;;28.51;36.96;98815.84;7784108;30;19934;-76
2022/06/25 13:50:42;;;;;;;;;;;;;;;28.17;39.77;98813.38;7786963;30;20054;-76
2022/06/25 13:54:51;;;;;;;;;;;;;;;27.66;38.47;98808.88;7787138;30;19952;-76
2022/06/25 13:58:52;;;;;;;;;;;;;;;27.81;41.32;98812.03;7786267;30;19945;-76
2022/06/25 14:02:54;;;;;;;;;;;;;;;28.23;38.98;98806.69;7767006;30;19946;-76
2022/06/25 14:06:56;;;;;;;;;;;;;;;28.53;36.64;98804.03;7792331;30;19981;-76
2022/06/25 14:10:57;;;;;;;;;;;;;;;28.56;38.30;98810.97;7789294;30;19997;-76
2022/06/25 14:14:59;;;;;;;;;;;;;;;28.91;36.91;98799.84;7791269;30;19985;-76
2022/06/25 14:19:02;;;;;;;;;;;;;;;28.93;35.82;98794.38;7774318;30;19935;-76
2022/06/25 14:23:04;;;;;;;;;;;;;;;28.65;35.99;98782.56;7788723;30;19977;-76
2022/06/25 14:27:07;;;;;;;;;;;;;;;28.50;37.18;98792.78;7773319;30;19967;-76
2022/06/25 14:31:08;;;;;;;;;;;;;;;28.48;37.51;98782.25;7769785;30;20600;-76
2022/06/25 14:35:11;;;;;;;;;;;;;;;28.72;38.41;98784.56;7786308;30;19935;-76
2022/06/25 14:43:33;;;;;;;;;;;;;;;28.45;38.74;98787.00;7783556;30;20392;-76
2022/06/25 14:47:34;;;;;;;;;;;;;;;28.29;39.77;98780.34;7789536;30;19941;-76
2022/06/25 14:51:36;;;;;;;;;;;;;;;28.15;38.36;98785.13;7792997;30;19935;-76
2022/06/25 14:55:38;;;;;;;;;;;;;;;27.88;38.66;98786.53;7784162;30;20018;-76
2022/06/25 14:59:40;;;;;;;;;;;;;;;27.76;41.67;98779.56;7784980;30;19935;-75
2022/06/25 15:03:41;;;;;;;;;;;;;;;28.18;41.42;98772.38;7782554;30;20485;-76
2022/06/25 15:07:43;;;;;;;;;;;;;;;28.37;39.02;98768.13;7777674;30;19935;-76
2022/06/25 15:11:44;;;;;;;;;;;;;;;28.24;39.61;98765.66;7774083;30;20253;-76
2022/06/25 15:15:46;;;;;;;;;;;;;;;28.05;39.71;98761.09;7781235;30;19978;-76
2022/06/25 15:19:47;;;;;;;;;;;;;;;27.80;39.86;98761.47;7768664;30;20530;-76
2022/06/25 15:23:49;;;;;;;;;;;;;;;27.46;41.19;98761.63;7788356;30;19935;-76
2022/06/25 15:27:51;;;;;;;;;;;;;;;27.23;41.11;98754.72;7788664;30;19969;-76
2022/06/25 15:31:52;;;;;;;;;;;;;;;27.06;40.95;98756.94;7793549;30;20057;-75
2022/06/25 15:35:53;;;;;;;;;;;;;;;26.95;43.30;98759.63;7793117;30;20053;-75
2022/06/25 15:39:55;;;;;;;;;;;;;;;26.86;44.92;98747.03;7789993;30;20033;-76
2022/06/25 15:43:56;;;;;;;;;;;;;;;26.77;44.21;98748.66;7791174;30;19935;-76
2022/06/25 15:47:58;;;;;;;;;;;;;;;26.82;44.68;98739.44;7790797;30;19939;-75
2022/06/25 15:51:59;;;;;;;;;;;;;;;27.15;44.43;98742.03;7787564;30;19974;-76
2022/06/25 15:56:01;;;;;;;;;;;;;;;27.33;45.35;98739.66;7782847;30;20388;-76
2022/06/25 16:00:03;;;;;;;;;;;;;;;27.25;45.76;98726.94;7770587;30;20029;-76
2022/06/25 16:04:05;;;;;;;;;;;;;;;27.06;43.72;98718.78;7774346;30;19935;-76
2022/06/25 16:08:07;;;;;;;;;;;;;;;27.01;46.66;98713.84;7787426;30;20022;-77
2022/06/25 16:12:08;;;;;;;;;;;;;;;26.98;44.99;98711.41;7788316;30;19942;-77
2022/06/25 16:16:10;;;;;;;;;;;;;;;26.99;46.14;98709.59;7768020;30;19934;-76
2022/06/25 16:20:12;;;;;;;;;;;;;;;27.01;44.37;98703.19;7774951;30;20009;-76
2022/06/25 16:24:14;;;;;;;;;;;;;;;26.99;44.77;98707.75;7786293;30;20001;-76
2022/06/25 16:28:16;;;;;;;;;;;;;;;26.92;45.15;98711.88;7792316;30;20405;-77
2022/06/25 16:32:17;;;;;;;;;;;;;;;26.91;46.01;98704.03;7795693;30;20042;-77
2022/06/25 16:36:19;;;;;;;;;;;;;;;26.94;45.78;98699.31;7769193;30;19934;-76
2022/06/25 16:40:24;;;;;;;;;;;;;;;27.00;46.33;98704.16;7783444;30;19985;-76
2022/06/25 16:44:26;;;;;;;;;;;;;;;26.99;45.92;98701.59;7795380;30;19935;-77
2022/06/25 16:48:27;;;;;;;;;;;;;;;26.87;47.19;98692.78;7774091;30;20741;-75
2022/06/25 16:52:29;;;;;;;;;;;;;;;26.75;47.63;98683.13;7797830;30;19946;-76
2022/06/25 16:56:31;;;;;;;;;;;;;;;26.64;49.62;98681.34;7796064;30;19966;-76
2022/06/25 17:00:32;;;;;;;;;;;;;;;26.53;49.94;98677.88;7794772;30;19939;-76
2022/06/25 17:04:34;;;;;;;;;;;;;;;26.32;49.82;98689.25;7799381;30;20428;-76
2022/06/25 17:08:35;;;;;;;;;;;;;;;26.10;50.13;98687.47;7799644;30;19981;-76
2022/06/25 17:12:37;;;;;;;;;;;;;;;25.94;51.24;98692.28;7791259;30;19941;-76
2022/06/25 17:16:38;;;;;;;;;;;;;;;25.74;53.74;98693.00;7794242;30;19949;-76
2022/06/25 17:20:41;;;;;;;;;;;;;;;25.53;54.96;98703.47;7781081;30;20520;-76
2022/06/25 17:24:42;;;;;;;;;;;;;;;25.48;55.06;98692.31;7780554;30;20029;-75
2022/06/25 17:28:46;;;;;;;;;;;;;;;25.50;52.70;98696.56;7781402;30;20314;-76
2022/06/25 17:32:48;;;;;;;;;;;;;;;25.54;51.74;98691.88;7791814;30;19939;-77
2022/06/25 17:36:49;;;;;;;;;;;;;;;25.55;52.60;98694.41;7791535;30;20403;-76
2022/06/25 17:40:51;;;;;;;;;;;;;;;25.54;53.80;98692.72;7790273;30;19985;-77
2022/06/25 17:44:52;;;;;;;;;;;;;;;25.53;53.56;98690.16;7790121;30;20033;-76
2022/06/25 17:48:54;;;;;;;;;;;;;;;25.54;53.71;98678.56;7759746;30;20006;-76
2022/06/25 17:52:56;;;;;;;;;;;;;;;25.37;56.37;98685.19;7790246;30;20364;-76
2022/06/25 17:56:57;;;;;;;;;;;;;;;25.17;58.62;98675.22;7787976;30;19945;-77
2022/06/25 18:00:59;;;;;;;;;;;;;;;24.90;59.57;98681.59;7790224;30;20043;-78
2022/06/25 18:05:00;;;;;;;;;;;;;;;24.62;59.75;98690.75;7788519;30;20301;-79
2022/06/25 18:09:02;;;;;;;;;;;;;;;24.50;60.02;98691.66;7789019;30;19974;-78
2022/06/25 18:13:04;;;;;;;;;;;;;;;24.38;61.61;98701.31;7788824;30;19985;-78
2022/06/25 18:17:05;;;;;;;;;;;;;;;24.11;61.17;98705.94;7792533;30;19974;-78
2022/06/25 18:21:07;;;;;;;;;;;;;;;23.85;62.58;98712.19;7781678;30;20345;-78
2022/06/25 18:25:08;;;;;;;;;;;;;;;23.62;62.03;98727.91;7777147;30;19939;-78
2022/06/25 18:29:10;;;;;;;;;;;;;;;23.47;63.27;98727.09;7776347;30;19939;-78
2022/06/25 18:33:11;;;;;;;;;;;;;;;23.30;65.73;98731.84;7770964;30;19945;-78
2022/06/25 18:37:13;;;;;;;;;;;;;;;23.10;66.58;98726.06;7778886;30;19947;-79
2022/06/25 18:41:14;;;;;;;;;;;;;;;22.89;66.24;98725.69;7791010;30;19946;-78
2022/06/25 18:45:16;;;;;;;;;;;;;;;22.79;67.60;98718.41;7758931;30;19973;-78
2022/06/25 18:49:17;;;;;;;;;;;;;;;22.70;67.93;98734.88;7791944;30;20001;-79
2022/06/25 18:53:18;;;;;;;;;;;;;;;22.52;67.83;98729.81;7797491;30;20361;-78
2022/06/25 18:57:25;;;;;;;;;;;;;;;22.32;68.00;98735.53;7777123;30;19936;-77
2022/06/25 19:01:30;;;;;;;;;;;;;;;21.99;68.41;98725.22;7787579;30;19935;-78
2022/06/25 19:05:31;;;;;;;;;;;;;;;21.87;68.84;98729.47;7788864;30;19993;-77
2022/06/25 19:09:32;;;;;;;;;;;;;;;21.71;67.89;98737.47;7779296;30;19931;-80
2022/06/25 19:13:34;;;;;;;;;;;;;;;21.51;68.31;98729.88;7782618;30;19946;-79
2022/06/25 19:17:35;;;;;;;;;;;;;;;21.41;68.96;98731.38;7789175;30;19946;-79
2022/06/25 19:21:37;;;;;;;;;;;;;;;21.32;69.49;98731.91;7784076;30;20429;-79
2022/06/25 19:25:39;;;;;;;;;;;;;;;21.18;70.11;98731.81;7784305;30;20065;-79
2022/06/25 19:29:40;;;;;;;;;;;;;;;21.03;70.58;98734.44;7782833;30;19935;-79
2022/06/25 19:33:42;;;;;;;;;;;;;;;20.96;70.20;98741.00;7772480;30;19934;-79
2022/06/25 19:37:43;;;;;;;;;;;;;;;20.81;70.32;98734.78;7796334;30;19935;-79
2022/06/25 19:41:46;;;;;;;;;;;;;;;20.74;70.48;98737.88;7793344;30;19981;-80
2022/06/25 19:45:47;;;;;;;;;;;;;;;20.68;69.94;98728.53;7799831;30;19981;-79
2022/06/25 19:49:50;;;;;;;;;;;;;;;20.57;70.69;98730.91;7776008;30;19939;-78
2022/06/25 19:53:51;;;;;;;;;;;;;;;20.50;71.74;98733.03;7781646;30;20233;-77
2022/06/25 19:57:53;;;;;;;;;;;;;;;20.40;71.70;98730.94;7772576;30;20637;-78
2022/06/25 20:01:54;;;;;;;;;;;;;;;20.33;71.81;98746.25;7797992;30;19935;-78
2022/06/25 20:05:55;;;;;;;;;;;;;;;20.12;72.46;98779.06;7799672;30;19938;-79
2022/06/25 20:09:57;;;;;;;;;;;;;;;19.97;73.25;98799.16;7782806;30;19935;-78
2022/06/25 20:13:58;;;;;;;;;;;;;;;20.03;74.15;98814.66;7792745;30;19935;-78
2022/06/25 20:18:00;;;;;;;;;;;;;;;20.08;73.57;98848.66;7800857;30;19935;-80
2022/06/25 20:22:02;;;;;;;;;;;;;;;20.02;71.60;98909.59;7798929;30;20317;-80
2022/06/25 20:26:04;;;;;;;;;;;;;;;20.15;70.99;98943.19;7785662;30;19934;-80
2022/06/25 20:30:06;;;;;;;;;;;;;;;20.11;72.77;98975.06;7774298;30;19934;-80
2022/06/25 20:34:08;;;;;;;;;;;;;;;19.77;75.08;98981.13;7813601;30;20597;-79
2022/06/25 20:38:10;;;;;;;;;;;;;;;19.59;77.27;98996.03;7808877;30;19931;-78
2022/06/25 20:42:11;;;;;;;;;;;;;;;19.19;80.08;99002.25;7787250;30;19946;-77
2022/06/25 20:46:13;;;;;;;;;;;;;;;18.94;82.91;99006.00;7791264;30;20015;-77
2022/06/25 20:50:15;;;;;;;;;;;;;;;18.81;85.39;99014.47;7796543;30;19946;-78
2022/06/25 20:54:16;;;;;;;;;;;;;;;18.54;85.58;98998.97;7794522;30;19935;-77
2022/06/25 20:58:18;;;;;;;;;;;;;;;18.53;86.66;98978.84;7797393;30;20301;-78
2022/06/25 21:02:20;;;;;;;;;;;;;;;18.60;88.44;98977.66;7792326;30;19985;-77
2022/06/25 21:10:43;;;;;;;;;;;;;;;18.49;89.27;98985.16;7795888;30;20318;-77
2022/06/25 21:14:45;;;;;;;;;;;;;;;18.45;90.84;98986.19;7791240;30;19938;-77
2022/06/25 21:18:46;;;;;;;;;;;;;;;18.51;91.54;98983.31;7789074;30;20058;-78
2022/06/25 21:22:48;;;;;;;;;;;;;;;18.56;91.39;98973.44;7793988;30;19942;-77
2022/06/25 21:26:49;;;;;;;;;;;;;;;18.49;91.11;98979.03;7784451;30;19950;-77